sensor_id;sensor_type;location;lat;lon;timestamp;P1;durP1;ratioP1;P2;durP2;ratioP2
22193;SDS011;11262;50.308;9.270;2022-07-25T00:01:49;15.93;;;8.43;;
22193;SDS011;11262;50.308;9.270;2022-07-25T00:04:14;18.70;;;9.00;;
22193;SDS011;11262;50.308;9.270;2022-07-25T00:06:40;17.20;;;9.00;;
22193;SDS011;11262;50.308;9.270;2022-07-25T00:09:06;18.77;;;8.50;;
22193;SDS011;11262;50.308;9.270;2022-07-25T00:11:32;14.97;;;8.40;;
22193;SDS011;11262;50.308;9.270;2022-07-25T00:13:57;17.80;;;8.90;;
22193;SDS011;11262;50.308;9.270;2022-07-25T00:16:23;15.67;;;8.50;;
22193;SDS011;11262;50.308;9.270;2022-07-25T00:18:49;15.53;;;8.27;;
22193;SDS011;11262;50.308;9.270;2022-07-25T00:21:14;18.47;;;9.50;;
22193;SDS011;11262;50.308;9.270;2022-07-25T00:23:40;15.93;;;8.87;;
22193;SDS011;11262;50.308;9.270;2022-07-25T00:26:05;16.93;;;8.83;;
22193;SDS011;11262;50.308;9.270;2022-07-25T00:28:31;20.13;;;8.83;;
22193;SDS011;11262;50.308;9.270;2022-07-25T00:30:57;16.03;;;8.43;;
22193;SDS011;11262;50.308;9.270;2022-07-25T00:33:22;15.90;;;8.47;;
22193;SDS011;11262;50.308;9.270;2022-07-25T00:35:48;15.60;;;8.83;;
22193;SDS011;11262;50.308;9.270;2022-07-25T00:38:14;17.97;;;9.03;;
22193;SDS011;11262;50.308;9.270;2022-07-25T00:40:39;17.83;;;9.07;;
22193;SDS011;11262;50.308;9.270;2022-07-25T00:43:05;16.47;;;8.57;;
22193;SDS011;11262;50.308;9.270;2022-07-25T00:45:31;14.83;;;8.43;;
22193;SDS011;11262;50.308;9.270;2022-07-25T00:47:57;20.20;;;8.80;;
22193;SDS011;11262;50.308;9.270;2022-07-25T00:50:22;16.20;;;8.73;;
22193;SDS011;11262;50.308;9.270;2022-07-25T00:52:48;18.13;;;9.00;;
22193;SDS011;11262;50.308;9.270;2022-07-25T00:55:14;15.70;;;8.90;;
22193;SDS011;11262;50.308;9.270;2022-07-25T00:57:39;16.67;;;8.90;;
22193;SDS011;11262;50.308;9.270;2022-07-25T01:00:06;15.23;;;8.63;;
22193;SDS011;11262;50.308;9.270;2022-07-25T01:02:35;18.10;;;8.50;;
22193;SDS011;11262;50.308;9.270;2022-07-25T01:05:01;18.17;;;9.27;;
22193;SDS011;11262;50.308;9.270;2022-07-25T01:07:28;14.53;;;8.03;;
22193;SDS011;11262;50.308;9.270;2022-07-25T01:09:54;15.70;;;8.37;;
22193;SDS011;11262;50.308;9.270;2022-07-25T01:12:20;16.77;;;8.83;;
22193;SDS011;11262;50.308;9.270;2022-07-25T01:14:46;18.43;;;8.83;;
22193;SDS011;11262;50.308;9.270;2022-07-25T01:17:11;17.00;;;8.43;;
22193;SDS011;11262;50.308;9.270;2022-07-25T01:19:37;17.50;;;8.63;;
22193;SDS011;11262;50.308;9.270;2022-07-25T01:22:03;15.83;;;8.50;;
22193;SDS011;11262;50.308;9.270;2022-07-25T01:24:28;16.93;;;8.30;;
22193;SDS011;11262;50.308;9.270;2022-07-25T01:26:54;16.53;;;8.87;;
22193;SDS011;11262;50.308;9.270;2022-07-25T01:29:20;19.77;;;8.53;;
22193;SDS011;11262;50.308;9.270;2022-07-25T01:31:46;16.50;;;9.07;;
22193;SDS011;11262;50.308;9.270;2022-07-25T01:34:12;16.17;;;8.20;;
22193;SDS011;11262;50.308;9.270;2022-07-25T01:36:37;18.97;;;8.87;;
22193;SDS011;11262;50.308;9.270;2022-07-25T01:39:03;16.77;;;8.43;;
22193;SDS011;11262;50.308;9.270;2022-07-25T01:41:29;18.17;;;9.00;;
22193;SDS011;11262;50.308;9.270;2022-07-25T01:43:54;14.70;;;8.07;;
22193;SDS011;11262;50.308;9.270;2022-07-25T01:46:20;15.87;;;8.83;;
22193;SDS011;11262;50.308;9.270;2022-07-25T01:48:45;15.30;;;8.10;;
22193;SDS011;11262;50.308;9.270;2022-07-25T01:51:11;16.80;;;8.93;;
22193;SDS011;11262;50.308;9.270;2022-07-25T01:53:37;16.83;;;8.40;;
22193;SDS011;11262;50.308;9.270;2022-07-25T01:56:03;15.53;;;8.70;;
22193;SDS011;11262;50.308;9.270;2022-07-25T01:58:30;17.90;;;8.93;;
22193;SDS011;11262;50.308;9.270;2022-07-25T02:00:55;14.90;;;8.43;;
22193;SDS011;11262;50.308;9.270;2022-07-25T02:03:21;19.63;;;9.33;;
22193;SDS011;11262;50.308;9.270;2022-07-25T02:05:56;19.00;;;8.83;;
22193;SDS011;11262;50.308;9.270;2022-07-25T02:10:58;18.20;;;9.20;;
22193;SDS011;11262;50.308;9.270;2022-07-25T02:13:24;17.20;;;8.63;;
22193;SDS011;11262;50.308;9.270;2022-07-25T02:15:50;19.90;;;8.83;;
22193;SDS011;11262;50.308;9.270;2022-07-25T02:18:16;19.00;;;9.40;;
22193;SDS011;11262;50.308;9.270;2022-07-25T02:20:42;17.33;;;9.03;;
22193;SDS011;11262;50.308;9.270;2022-07-25T02:23:07;16.67;;;9.00;;
22193;SDS011;11262;50.308;9.270;2022-07-25T02:25:34;16.50;;;8.63;;
22193;SDS011;11262;50.308;9.270;2022-07-25T02:27:59;18.57;;;9.20;;
22193;SDS011;11262;50.308;9.270;2022-07-25T02:30:25;16.43;;;8.57;;
22193;SDS011;11262;50.308;9.270;2022-07-25T02:32:51;15.43;;;8.77;;
22193;SDS011;11262;50.308;9.270;2022-07-25T02:35:17;17.07;;;9.17;;
22193;SDS011;11262;50.308;9.270;2022-07-25T02:37:43;15.63;;;8.50;;
22193;SDS011;11262;50.308;9.270;2022-07-25T02:40:09;17.23;;;8.80;;
22193;SDS011;11262;50.308;9.270;2022-07-25T02:42:34;18.00;;;8.80;;
22193;SDS011;11262;50.308;9.270;2022-07-25T02:45:00;16.40;;;8.60;;
22193;SDS011;11262;50.308;9.270;2022-07-25T02:47:26;16.97;;;9.23;;
22193;SDS011;11262;50.308;9.270;2022-07-25T02:49:52;18.30;;;9.13;;
22193;SDS011;11262;50.308;9.270;2022-07-25T02:52:17;17.57;;;8.67;;
22193;SDS011;11262;50.308;9.270;2022-07-25T02:54:43;21.97;;;9.53;;
22193;SDS011;11262;50.308;9.270;2022-07-25T02:57:08;16.37;;;9.00;;
22193;SDS011;11262;50.308;9.270;2022-07-25T02:59:34;19.77;;;8.90;;
22193;SDS011;11262;50.308;9.270;2022-07-25T03:02:00;17.00;;;8.77;;
22193;SDS011;11262;50.308;9.270;2022-07-25T03:04:25;17.60;;;9.43;;
22193;SDS011;11262;50.308;9.270;2022-07-25T03:06:51;19.93;;;10.47;;
22193;SDS011;11262;50.308;9.270;2022-07-25T03:09:17;18.20;;;9.53;;
22193;SDS011;11262;50.308;9.270;2022-07-25T03:11:43;16.57;;;8.83;;
22193;SDS011;11262;50.308;9.270;2022-07-25T03:14:09;18.67;;;9.00;;
22193;SDS011;11262;50.308;9.270;2022-07-25T03:16:34;19.87;;;10.10;;
22193;SDS011;11262;50.308;9.270;2022-07-25T03:19:00;16.90;;;9.10;;
22193;SDS011;11262;50.308;9.270;2022-07-25T03:21:26;19.50;;;9.33;;
22193;SDS011;11262;50.308;9.270;2022-07-25T03:23:52;16.37;;;9.17;;
22193;SDS011;11262;50.308;9.270;2022-07-25T03:26:17;20.00;;;10.37;;
22193;SDS011;11262;50.308;9.270;2022-07-25T03:28:43;20.37;;;9.57;;
22193;SDS011;11262;50.308;9.270;2022-07-25T03:31:09;18.27;;;9.17;;
22193;SDS011;11262;50.308;9.270;2022-07-25T03:33:34;17.23;;;9.67;;
22193;SDS011;11262;50.308;9.270;2022-07-25T03:36:00;18.20;;;9.07;;
22193;SDS011;11262;50.308;9.270;2022-07-25T03:38:25;18.40;;;9.70;;
22193;SDS011;11262;50.308;9.270;2022-07-25T03:40:51;19.70;;;9.67;;
22193;SDS011;11262;50.308;9.270;2022-07-25T03:43:17;17.27;;;9.00;;
22193;SDS011;11262;50.308;9.270;2022-07-25T03:45:42;20.57;;;9.33;;
22193;SDS011;11262;50.308;9.270;2022-07-25T03:48:08;15.20;;;8.63;;
22193;SDS011;11262;50.308;9.270;2022-07-25T03:50:34;15.93;;;8.60;;
22193;SDS011;11262;50.308;9.270;2022-07-25T03:52:59;15.93;;;8.87;;
22193;SDS011;11262;50.308;9.270;2022-07-25T03:55:25;18.53;;;8.63;;
22193;SDS011;11262;50.308;9.270;2022-07-25T03:57:51;17.17;;;9.37;;
22193;SDS011;11262;50.308;9.270;2022-07-25T04:00:16;18.00;;;8.80;;
22193;SDS011;11262;50.308;9.270;2022-07-25T04:02:42;17.37;;;8.87;;
22193;SDS011;11262;50.308;9.270;2022-07-25T04:05:07;16.93;;;8.60;;
22193;SDS011;11262;50.308;9.270;2022-07-25T04:07:34;14.37;;;8.50;;
22193;SDS011;11262;50.308;9.270;2022-07-25T04:10:00;17.17;;;9.20;;
22193;SDS011;11262;50.308;9.270;2022-07-25T04:12:26;14.00;;;8.53;;
22193;SDS011;11262;50.308;9.270;2022-07-25T04:14:52;16.33;;;9.50;;
22193;SDS011;11262;50.308;9.270;2022-07-25T04:17:17;16.77;;;9.20;;
22193;SDS011;11262;50.308;9.270;2022-07-25T04:19:43;16.57;;;8.80;;
22193;SDS011;11262;50.308;9.270;2022-07-25T04:22:08;16.83;;;9.00;;
22193;SDS011;11262;50.308;9.270;2022-07-25T04:24:34;17.67;;;8.87;;
22193;SDS011;11262;50.308;9.270;2022-07-25T04:27:00;17.13;;;9.30;;
22193;SDS011;11262;50.308;9.270;2022-07-25T04:29:25;17.83;;;9.00;;
22193;SDS011;11262;50.308;9.270;2022-07-25T04:31:51;17.00;;;8.00;;
22193;SDS011;11262;50.308;9.270;2022-07-25T04:34:17;17.30;;;8.83;;
22193;SDS011;11262;50.308;9.270;2022-07-25T04:36:42;17.13;;;9.10;;
22193;SDS011;11262;50.308;9.270;2022-07-25T04:39:08;17.70;;;8.83;;
22193;SDS011;11262;50.308;9.270;2022-07-25T04:41:33;17.07;;;9.07;;
22193;SDS011;11262;50.308;9.270;2022-07-25T04:43:59;16.17;;;9.07;;
22193;SDS011;11262;50.308;9.270;2022-07-25T04:46:25;16.27;;;8.37;;
22193;SDS011;11262;50.308;9.270;2022-07-25T04:48:50;14.63;;;8.37;;
22193;SDS011;11262;50.308;9.270;2022-07-25T04:51:16;16.73;;;9.33;;
22193;SDS011;11262;50.308;9.270;2022-07-25T04:53:42;21.90;;;9.03;;
22193;SDS011;11262;50.308;9.270;2022-07-25T04:56:08;16.80;;;9.23;;
22193;SDS011;11262;50.308;9.270;2022-07-25T04:58:34;15.53;;;8.57;;
22193;SDS011;11262;50.308;9.270;2022-07-25T05:01:00;17.90;;;8.67;;
22193;SDS011;11262;50.308;9.270;2022-07-25T05:03:26;18.57;;;8.83;;
22193;SDS011;11262;50.308;9.270;2022-07-25T05:05:51;18.43;;;9.13;;
22193;SDS011;11262;50.308;9.270;2022-07-25T05:08:17;15.80;;;8.27;;
22193;SDS011;11262;50.308;9.270;2022-07-25T05:10:43;14.97;;;8.33;;
22193;SDS011;11262;50.308;9.270;2022-07-25T05:13:08;17.97;;;8.80;;
22193;SDS011;11262;50.308;9.270;2022-07-25T05:15:34;17.47;;;9.27;;
22193;SDS011;11262;50.308;9.270;2022-07-25T05:18:00;15.00;;;8.00;;
22193;SDS011;11262;50.308;9.270;2022-07-25T05:20:26;16.03;;;8.47;;
22193;SDS011;11262;50.308;9.270;2022-07-25T05:22:52;17.10;;;8.27;;
22193;SDS011;11262;50.308;9.270;2022-07-25T05:25:18;14.30;;;8.00;;
22193;SDS011;11262;50.308;9.270;2022-07-25T05:27:44;18.03;;;9.03;;
22193;SDS011;11262;50.308;9.270;2022-07-25T05:30:10;17.60;;;9.00;;
22193;SDS011;11262;50.308;9.270;2022-07-25T05:32:37;16.17;;;8.30;;
22193;SDS011;11262;50.308;9.270;2022-07-25T05:35:04;14.27;;;8.40;;
22193;SDS011;11262;50.308;9.270;2022-07-25T05:37:31;16.53;;;8.87;;
22193;SDS011;11262;50.308;9.270;2022-07-25T05:39:58;14.33;;;8.43;;
22193;SDS011;11262;50.308;9.270;2022-07-25T05:42:24;16.00;;;8.07;;
22193;SDS011;11262;50.308;9.270;2022-07-25T05:44:50;17.20;;;8.53;;
22193;SDS011;11262;50.308;9.270;2022-07-25T05:47:16;15.47;;;8.23;;
22193;SDS011;11262;50.308;9.270;2022-07-25T05:49:41;17.37;;;9.00;;
22193;SDS011;11262;50.308;9.270;2022-07-25T05:52:07;17.80;;;9.13;;
22193;SDS011;11262;50.308;9.270;2022-07-25T05:54:33;13.47;;;8.33;;
22193;SDS011;11262;50.308;9.270;2022-07-25T05:56:59;14.60;;;8.37;;
22193;SDS011;11262;50.308;9.270;2022-07-25T05:59:25;15.83;;;7.97;;
22193;SDS011;11262;50.308;9.270;2022-07-25T06:01:51;15.87;;;7.93;;
22193;SDS011;11262;50.308;9.270;2022-07-25T06:04:17;17.47;;;9.03;;
22193;SDS011;11262;50.308;9.270;2022-07-25T06:06:43;15.40;;;8.47;;
22193;SDS011;11262;50.308;9.270;2022-07-25T06:09:15;15.20;;;8.17;;
22193;SDS011;11262;50.308;9.270;2022-07-25T06:11:41;16.33;;;8.43;;
22193;SDS011;11262;50.308;9.270;2022-07-25T06:14:07;13.53;;;8.37;;
22193;SDS011;11262;50.308;9.270;2022-07-25T06:16:33;15.53;;;8.73;;
22193;SDS011;11262;50.308;9.270;2022-07-25T06:18:58;14.40;;;8.00;;
22193;SDS011;11262;50.308;9.270;2022-07-25T06:21:24;16.57;;;8.57;;
22193;SDS011;11262;50.308;9.270;2022-07-25T06:23:49;15.27;;;8.27;;
22193;SDS011;11262;50.308;9.270;2022-07-25T06:26:15;15.30;;;8.63;;
22193;SDS011;11262;50.308;9.270;2022-07-25T06:28:41;17.87;;;8.87;;
22193;SDS011;11262;50.308;9.270;2022-07-25T06:31:06;16.90;;;8.63;;
22193;SDS011;11262;50.308;9.270;2022-07-25T06:33:32;15.93;;;8.50;;
22193;SDS011;11262;50.308;9.270;2022-07-25T06:35:58;15.90;;;8.80;;
22193;SDS011;11262;50.308;9.270;2022-07-25T06:38:23;14.87;;;7.70;;
22193;SDS011;11262;50.308;9.270;2022-07-25T06:40:49;15.57;;;8.00;;
22193;SDS011;11262;50.308;9.270;2022-07-25T06:43:15;15.20;;;8.27;;
22193;SDS011;11262;50.308;9.270;2022-07-25T06:45:40;15.37;;;8.70;;
22193;SDS011;11262;50.308;9.270;2022-07-25T06:48:11;16.00;;;8.50;;
22193;SDS011;11262;50.308;9.270;2022-07-25T06:50:37;17.33;;;8.07;;
22193;SDS011;11262;50.308;9.270;2022-07-25T06:53:03;14.93;;;8.60;;
22193;SDS011;11262;50.308;9.270;2022-07-25T06:55:28;15.67;;;8.53;;
22193;SDS011;11262;50.308;9.270;2022-07-25T06:57:54;14.60;;;8.07;;
22193;SDS011;11262;50.308;9.270;2022-07-25T07:00:19;16.03;;;8.40;;
22193;SDS011;11262;50.308;9.270;2022-07-25T07:02:52;16.90;;;8.67;;
22193;SDS011;11262;50.308;9.270;2022-07-25T07:05:23;15.17;;;7.97;;
22193;SDS011;11262;50.308;9.270;2022-07-25T07:07:50;15.73;;;8.50;;
22193;SDS011;11262;50.308;9.270;2022-07-25T07:10:16;15.97;;;8.80;;
22193;SDS011;11262;50.308;9.270;2022-07-25T07:12:42;15.50;;;8.33;;
22193;SDS011;11262;50.308;9.270;2022-07-25T07:15:09;18.27;;;8.33;;
22193;SDS011;11262;50.308;9.270;2022-07-25T07:17:36;16.33;;;8.47;;
22193;SDS011;11262;50.308;9.270;2022-07-25T07:20:03;17.10;;;8.20;;
22193;SDS011;11262;50.308;9.270;2022-07-25T07:22:30;18.60;;;9.07;;
22193;SDS011;11262;50.308;9.270;2022-07-25T07:24:55;15.97;;;8.33;;
22193;SDS011;11262;50.308;9.270;2022-07-25T07:27:21;16.47;;;8.00;;
22193;SDS011;11262;50.308;9.270;2022-07-25T07:29:50;15.63;;;8.30;;
22193;SDS011;11262;50.308;9.270;2022-07-25T07:32:15;15.83;;;8.47;;
22193;SDS011;11262;50.308;9.270;2022-07-25T07:34:41;15.67;;;8.67;;
22193;SDS011;11262;50.308;9.270;2022-07-25T07:37:07;16.23;;;8.30;;
22193;SDS011;11262;50.308;9.270;2022-07-25T07:39:32;16.03;;;8.60;;
22193;SDS011;11262;50.308;9.270;2022-07-25T07:41:58;17.30;;;8.37;;
22193;SDS011;11262;50.308;9.270;2022-07-25T07:44:23;15.80;;;8.27;;
22193;SDS011;11262;50.308;9.270;2022-07-25T07:46:49;16.33;;;8.43;;
22193;SDS011;11262;50.308;9.270;2022-07-25T07:49:15;14.97;;;8.60;;
22193;SDS011;11262;50.308;9.270;2022-07-25T07:51:40;16.30;;;8.20;;
22193;SDS011;11262;50.308;9.270;2022-07-25T07:54:06;16.67;;;8.60;;
22193;SDS011;11262;50.308;9.270;2022-07-25T07:56:50;22.17;;;8.73;;
22193;SDS011;11262;50.308;9.270;2022-07-25T07:59:16;14.97;;;8.30;;
22193;SDS011;11262;50.308;9.270;2022-07-25T08:01:41;16.47;;;8.90;;
22193;SDS011;11262;50.308;9.270;2022-07-25T08:04:07;16.03;;;8.20;;
22193;SDS011;11262;50.308;9.270;2022-07-25T08:06:32;16.00;;;8.20;;
22193;SDS011;11262;50.308;9.270;2022-07-25T08:08:58;16.80;;;7.93;;
22193;SDS011;11262;50.308;9.270;2022-07-25T08:11:24;15.83;;;8.40;;
22193;SDS011;11262;50.308;9.270;2022-07-25T08:13:50;18.10;;;8.43;;
22193;SDS011;11262;50.308;9.270;2022-07-25T08:16:16;13.83;;;8.23;;
22193;SDS011;11262;50.308;9.270;2022-07-25T08:18:42;16.37;;;8.53;;
22193;SDS011;11262;50.308;9.270;2022-07-25T08:21:07;14.73;;;8.37;;
22193;SDS011;11262;50.308;9.270;2022-07-25T08:23:34;13.70;;;8.13;;
22193;SDS011;11262;50.308;9.270;2022-07-25T08:26:03;14.30;;;8.27;;
22193;SDS011;11262;50.308;9.270;2022-07-25T08:28:29;16.90;;;8.50;;
22193;SDS011;11262;50.308;9.270;2022-07-25T08:30:55;16.27;;;8.77;;
22193;SDS011;11262;50.308;9.270;2022-07-25T08:33:23;16.70;;;8.67;;
22193;SDS011;11262;50.308;9.270;2022-07-25T08:35:50;13.57;;;8.53;;
22193;SDS011;11262;50.308;9.270;2022-07-25T08:38:18;16.00;;;8.00;;
22193;SDS011;11262;50.308;9.270;2022-07-25T08:40:44;16.93;;;8.60;;
22193;SDS011;11262;50.308;9.270;2022-07-25T08:43:11;14.50;;;8.07;;
22193;SDS011;11262;50.308;9.270;2022-07-25T08:45:40;14.93;;;8.23;;
22193;SDS011;11262;50.308;9.270;2022-07-25T08:48:19;15.90;;;8.47;;
22193;SDS011;11262;50.308;9.270;2022-07-25T08:50:46;17.13;;;8.47;;
22193;SDS011;11262;50.308;9.270;2022-07-25T08:53:14;16.83;;;8.67;;
22193;SDS011;11262;50.308;9.270;2022-07-25T08:55:41;16.23;;;8.07;;
22193;SDS011;11262;50.308;9.270;2022-07-25T08:58:09;14.43;;;8.53;;
22193;SDS011;11262;50.308;9.270;2022-07-25T09:00:37;15.60;;;7.90;;
22193;SDS011;11262;50.308;9.270;2022-07-25T09:03:03;18.20;;;8.47;;
22193;SDS011;11262;50.308;9.270;2022-07-25T09:05:32;13.63;;;8.10;;
22193;SDS011;11262;50.308;9.270;2022-07-25T09:08:06;16.40;;;8.70;;
22193;SDS011;11262;50.308;9.270;2022-07-25T09:10:36;15.27;;;8.90;;
22193;SDS011;11262;50.308;9.270;2022-07-25T09:13:07;16.80;;;8.80;;
22193;SDS011;11262;50.308;9.270;2022-07-25T09:15:45;16.30;;;9.10;;
22193;SDS011;11262;50.308;9.270;2022-07-25T09:18:23;13.90;;;8.77;;
22193;SDS011;11262;50.308;9.270;2022-07-25T09:20:52;15.37;;;7.97;;
22193;SDS011;11262;50.308;9.270;2022-07-25T09:28:38;13.63;;;7.60;;
22193;SDS011;11262;50.308;9.270;2022-07-25T09:31:12;19.50;;;8.23;;
22193;SDS011;11262;50.308;9.270;2022-07-25T09:33:45;14.20;;;7.87;;
22193;SDS011;11262;50.308;9.270;2022-07-25T09:36:12;18.63;;;8.10;;
22193;SDS011;11262;50.308;9.270;2022-07-25T09:38:38;14.30;;;8.00;;
22193;SDS011;11262;50.308;9.270;2022-07-25T09:41:04;11.27;;;7.30;;
22193;SDS011;11262;50.308;9.270;2022-07-25T09:43:35;17.73;;;7.97;;
22193;SDS011;11262;50.308;9.270;2022-07-25T09:46:02;12.63;;;7.97;;
22193;SDS011;11262;50.308;9.270;2022-07-25T09:48:28;14.67;;;8.40;;
22193;SDS011;11262;50.308;9.270;2022-07-25T09:50:53;13.20;;;7.60;;
22193;SDS011;11262;50.308;9.270;2022-07-25T09:53:19;15.50;;;8.63;;
22193;SDS011;11262;50.308;9.270;2022-07-25T09:55:45;13.50;;;8.03;;
22193;SDS011;11262;50.308;9.270;2022-07-25T09:58:11;13.60;;;8.07;;
22193;SDS011;11262;50.308;9.270;2022-07-25T10:00:38;15.43;;;8.23;;
22193;SDS011;11262;50.308;9.270;2022-07-25T10:05:54;16.33;;;8.20;;
22193;SDS011;11262;50.308;9.270;2022-07-25T10:08:44;15.93;;;7.63;;
22193;SDS011;11262;50.308;9.270;2022-07-25T10:11:24;15.00;;;7.37;;
22193;SDS011;11262;50.308;9.270;2022-07-25T10:13:54;15.67;;;7.90;;
22193;SDS011;11262;50.308;9.270;2022-07-25T10:18:55;16.47;;;8.20;;
22193;SDS011;11262;50.308;9.270;2022-07-25T10:21:23;14.90;;;8.30;;
22193;SDS011;11262;50.308;9.270;2022-07-25T10:23:56;14.00;;;7.80;;
22193;SDS011;11262;50.308;9.270;2022-07-25T10:26:30;14.60;;;7.83;;
22193;SDS011;11262;50.308;9.270;2022-07-25T10:28:57;13.18;;;7.90;;
22193;SDS011;11262;50.308;9.270;2022-07-25T10:31:33;14.27;;;8.10;;
22193;SDS011;11262;50.308;9.270;2022-07-25T10:34:06;13.85;;;7.95;;
22193;SDS011;11262;50.308;9.270;2022-07-25T10:39:12;14.93;;;7.60;;
22193;SDS011;11262;50.308;9.270;2022-07-25T10:41:40;13.40;;;7.63;;
22193;SDS011;11262;50.308;9.270;2022-07-25T10:44:11;16.10;;;7.80;;
22193;SDS011;11262;50.308;9.270;2022-07-25T10:46:38;14.55;;;7.45;;
22193;SDS011;11262;50.308;9.270;2022-07-25T10:49:05;15.82;;;8.15;;
22193;SDS011;11262;50.308;9.270;2022-07-25T10:51:33;11.88;;;7.28;;
22193;SDS011;11262;50.308;9.270;2022-07-25T10:54:10;12.43;;;7.13;;
22193;SDS011;11262;50.308;9.270;2022-07-25T10:56:37;11.60;;;6.80;;
22193;SDS011;11262;50.308;9.270;2022-07-25T10:59:02;11.25;;;6.60;;
22193;SDS011;11262;50.308;9.270;2022-07-25T11:01:32;17.92;;;6.90;;
22193;SDS011;11262;50.308;9.270;2022-07-25T11:04:03;9.57;;;6.32;;
22193;SDS011;11262;50.308;9.270;2022-07-25T11:09:00;11.18;;;7.30;;
22193;SDS011;11262;50.308;9.270;2022-07-25T11:11:47;15.40;;;7.45;;
22193;SDS011;11262;50.308;9.270;2022-07-25T11:14:27;11.10;;;6.85;;
22193;SDS011;11262;50.308;9.270;2022-07-25T11:17:09;15.55;;;7.20;;
22193;SDS011;11262;50.308;9.270;2022-07-25T11:19:35;12.43;;;7.20;;
22193;SDS011;11262;50.308;9.270;2022-07-25T11:22:01;14.10;;;7.45;;
22193;SDS011;11262;50.308;9.270;2022-07-25T11:27:02;11.35;;;6.97;;
22193;SDS011;11262;50.308;9.270;2022-07-25T11:29:28;14.77;;;7.15;;
22193;SDS011;11262;50.308;9.270;2022-07-25T11:31:58;10.38;;;6.65;;
22193;SDS011;11262;50.308;9.270;2022-07-25T11:34:27;15.27;;;7.07;;
22193;SDS011;11262;50.308;9.270;2022-07-25T11:36:57;13.68;;;7.28;;
22193;SDS011;11262;50.308;9.270;2022-07-25T11:39:28;12.90;;;7.43;;
22193;SDS011;11262;50.308;9.270;2022-07-25T11:42:02;11.40;;;6.63;;
22193;SDS011;11262;50.308;9.270;2022-07-25T11:44:30;12.65;;;6.55;;
22193;SDS011;11262;50.308;9.270;2022-07-25T11:46:56;11.80;;;6.95;;
22193;SDS011;11262;50.308;9.270;2022-07-25T11:49:22;11.40;;;7.00;;
22193;SDS011;11262;50.308;9.270;2022-07-25T11:51:48;13.32;;;7.07;;
22193;SDS011;11262;50.308;9.270;2022-07-25T11:54:14;12.95;;;7.20;;
22193;SDS011;11262;50.308;9.270;2022-07-25T11:56:40;12.93;;;6.40;;
22193;SDS011;11262;50.308;9.270;2022-07-25T11:59:07;14.50;;;6.88;;
22193;SDS011;11262;50.308;9.270;2022-07-25T12:01:37;13.00;;;6.38;;
22193;SDS011;11262;50.308;9.270;2022-07-25T12:04:12;12.80;;;6.65;;
22193;SDS011;11262;50.308;9.270;2022-07-25T12:06:41;11.40;;;6.70;;
22193;SDS011;11262;50.308;9.270;2022-07-25T12:09:12;13.13;;;6.97;;
22193;SDS011;11262;50.308;9.270;2022-07-25T12:11:42;13.02;;;6.68;;
22193;SDS011;11262;50.308;9.270;2022-07-25T12:14:09;11.80;;;7.10;;
22193;SDS011;11262;50.308;9.270;2022-07-25T12:16:35;10.57;;;6.57;;
22193;SDS011;11262;50.308;9.270;2022-07-25T12:19:02;10.48;;;6.57;;
22193;SDS011;11262;50.308;9.270;2022-07-25T12:21:29;10.23;;;6.30;;
22193;SDS011;11262;50.308;9.270;2022-07-25T12:23:54;12.05;;;6.57;;
22193;SDS011;11262;50.308;9.270;2022-07-25T12:26:20;11.85;;;6.35;;
22193;SDS011;11262;50.308;9.270;2022-07-25T12:28:46;12.55;;;6.40;;
22193;SDS011;11262;50.308;9.270;2022-07-25T12:31:11;13.75;;;6.43;;
22193;SDS011;11262;50.308;9.270;2022-07-25T12:33:37;14.43;;;6.78;;
22193;SDS011;11262;50.308;9.270;2022-07-25T12:36:03;13.38;;;6.72;;
22193;SDS011;11262;50.308;9.270;2022-07-25T12:38:29;14.23;;;7.40;;
22193;SDS011;11262;50.308;9.270;2022-07-25T12:40:55;15.25;;;7.20;;
22193;SDS011;11262;50.308;9.270;2022-07-25T12:43:21;11.20;;;6.88;;
22193;SDS011;11262;50.308;9.270;2022-07-25T12:45:46;13.95;;;7.28;;
22193;SDS011;11262;50.308;9.270;2022-07-25T12:48:12;15.38;;;7.75;;
22193;SDS011;11262;50.308;9.270;2022-07-25T12:50:39;14.40;;;7.30;;
22193;SDS011;11262;50.308;9.270;2022-07-25T12:53:05;14.63;;;7.63;;
22193;SDS011;11262;50.308;9.270;2022-07-25T12:55:31;14.82;;;7.30;;
22193;SDS011;11262;50.308;9.270;2022-07-25T12:57:56;14.88;;;7.53;;
22193;SDS011;11262;50.308;9.270;2022-07-25T13:00:23;14.93;;;7.20;;
22193;SDS011;11262;50.308;9.270;2022-07-25T13:02:49;15.30;;;8.00;;
22193;SDS011;11262;50.308;9.270;2022-07-25T13:05:17;13.77;;;6.88;;
22193;SDS011;11262;50.308;9.270;2022-07-25T13:07:43;12.60;;;6.93;;
22193;SDS011;11262;50.308;9.270;2022-07-25T13:10:09;11.63;;;6.50;;
22193;SDS011;11262;50.308;9.270;2022-07-25T13:12:36;14.75;;;6.93;;
22193;SDS011;11262;50.308;9.270;2022-07-25T13:15:02;12.02;;;6.90;;
22193;SDS011;11262;50.308;9.270;2022-07-25T13:17:28;11.68;;;6.72;;
22193;SDS011;11262;50.308;9.270;2022-07-25T13:19:56;13.75;;;7.80;;
22193;SDS011;11262;50.308;9.270;2022-07-25T13:22:22;12.07;;;7.53;;
22193;SDS011;11262;50.308;9.270;2022-07-25T13:24:48;12.43;;;7.57;;
22193;SDS011;11262;50.308;9.270;2022-07-25T13:27:16;16.55;;;7.50;;
22193;SDS011;11262;50.308;9.270;2022-07-25T13:29:42;14.23;;;7.68;;
22193;SDS011;11262;50.308;9.270;2022-07-25T13:32:08;14.88;;;7.70;;
22193;SDS011;11262;50.308;9.270;2022-07-25T13:34:34;12.95;;;7.30;;
22193;SDS011;11262;50.308;9.270;2022-07-25T13:36:59;14.10;;;7.93;;
22193;SDS011;11262;50.308;9.270;2022-07-25T13:39:25;14.95;;;7.72;;
22193;SDS011;11262;50.308;9.270;2022-07-25T13:41:51;11.40;;;7.68;;
22193;SDS011;11262;50.308;9.270;2022-07-25T13:44:17;15.63;;;8.02;;
22193;SDS011;11262;50.308;9.270;2022-07-25T13:46:42;11.90;;;7.50;;
22193;SDS011;11262;50.308;9.270;2022-07-25T13:49:09;13.90;;;7.72;;
22193;SDS011;11262;50.308;9.270;2022-07-25T13:51:35;13.95;;;7.72;;
22193;SDS011;11262;50.308;9.270;2022-07-25T13:54:02;14.20;;;7.28;;
22193;SDS011;11262;50.308;9.270;2022-07-25T13:56:28;15.43;;;8.23;;
22193;SDS011;11262;50.308;9.270;2022-07-25T13:58:54;16.40;;;8.02;;
22193;SDS011;11262;50.308;9.270;2022-07-25T14:01:20;12.10;;;7.38;;
22193;SDS011;11262;50.308;9.270;2022-07-25T14:03:46;16.00;;;7.78;;
22193;SDS011;11262;50.308;9.270;2022-07-25T14:06:11;13.35;;;7.00;;
22193;SDS011;11262;50.308;9.270;2022-07-25T14:08:38;12.50;;;7.10;;
22193;SDS011;11262;50.308;9.270;2022-07-25T14:11:04;12.55;;;7.18;;
22193;SDS011;11262;50.308;9.270;2022-07-25T14:13:30;13.55;;;6.75;;
22193;SDS011;11262;50.308;9.270;2022-07-25T14:15:57;13.50;;;6.95;;
22193;SDS011;11262;50.308;9.270;2022-07-25T14:18:23;13.15;;;6.65;;
22193;SDS011;11262;50.308;9.270;2022-07-25T14:20:49;23.27;;;7.85;;
22193;SDS011;11262;50.308;9.270;2022-07-25T14:23:15;22.95;;;7.88;;
22193;SDS011;11262;50.308;9.270;2022-07-25T14:25:41;13.18;;;6.95;;
22193;SDS011;11262;50.308;9.270;2022-07-25T14:28:06;10.95;;;6.70;;
22193;SDS011;11262;50.308;9.270;2022-07-25T14:30:32;11.85;;;7.25;;
22193;SDS011;11262;50.308;9.270;2022-07-25T14:32:58;15.63;;;7.15;;
22193;SDS011;11262;50.308;9.270;2022-07-25T14:35:23;11.93;;;6.90;;
22193;SDS011;11262;50.308;9.270;2022-07-25T14:37:49;10.80;;;6.13;;
22193;SDS011;11262;50.308;9.270;2022-07-25T14:40:15;11.32;;;6.35;;
22193;SDS011;11262;50.308;9.270;2022-07-25T14:42:42;14.60;;;6.23;;
22193;SDS011;11262;50.308;9.270;2022-07-25T14:45:08;13.07;;;6.40;;
22193;SDS011;11262;50.308;9.270;2022-07-25T14:47:35;14.67;;;6.70;;
22193;SDS011;11262;50.308;9.270;2022-07-25T14:50:01;13.97;;;6.40;;
22193;SDS011;11262;50.308;9.270;2022-07-25T14:52:27;16.17;;;7.47;;